createdAt,value
2018-03-06T00:00:48.781Z,995.54
2018-03-06T00:01:49.437Z,995.51
2018-03-06T00:02:48.792Z,995.51
2018-03-06T00:03:48.779Z,995.52
2018-03-06T00:04:48.788Z,995.55
2018-03-06T00:05:48.772Z,995.54
2018-03-06T00:06:48.782Z,995.52
2018-03-06T00:07:48.784Z,995.54
2018-03-06T00:08:49.085Z,995.56
2018-03-06T00:09:49.737Z,995.55
2018-03-06T00:10:48.777Z,995.56
2018-03-06T00:11:48.784Z,995.54
2018-03-06T00:12:48.777Z,995.56
2018-03-06T00:13:49.326Z,995.57
2018-03-06T00:14:48.790Z,995.55
2018-03-06T00:15:48.778Z,995.55
2018-03-06T00:16:48.946Z,995.55
2018-03-06T00:17:49.941Z,995.56
2018-03-06T00:18:48.816Z,995.59
2018-03-06T00:19:48.797Z,995.57
2018-03-06T00:20:48.813Z,995.55
2018-03-06T00:21:50.751Z,995.54
2018-03-06T00:22:49.935Z,995.56
2018-03-06T00:23:49.506Z,995.53
2018-03-06T00:24:49.485Z,995.53
2018-03-06T00:25:48.829Z,995.54
2018-03-06T00:26:48.874Z,995.51
2018-03-06T00:27:49.839Z,995.49
2018-03-06T00:28:48.819Z,995.54
2018-03-06T00:29:48.839Z,995.53
2018-03-06T00:30:48.845Z,995.54
2018-03-06T00:31:49.761Z,995.5
2018-03-06T00:32:48.834Z,995.54
2018-03-06T00:33:48.875Z,995.57
2018-03-06T00:34:48.848Z,995.54
2018-03-06T00:35:49.869Z,995.54
2018-03-06T00:36:48.891Z,995.59
2018-03-06T00:37:48.871Z,995.57
2018-03-06T00:38:48.877Z,995.56
2018-03-06T00:39:49.575Z,995.52
2018-03-06T00:40:48.881Z,995.52
2018-03-06T00:41:48.886Z,995.53
2018-03-06T00:42:49.907Z,995.51
2018-03-06T00:43:48.888Z,995.54
2018-03-06T00:44:48.900Z,995.55
2018-03-06T00:45:49.887Z,995.52
2018-03-06T00:46:48.907Z,995.53
2018-03-06T00:47:48.904Z,995.56
2018-03-06T00:48:49.195Z,995.56
2018-03-06T00:49:49.805Z,995.54
2018-03-06T00:50:48.911Z,995.55
2018-03-06T00:51:48.910Z,995.57
2018-03-06T00:52:49.869Z,995.54
2018-03-06T00:53:48.912Z,995.51
2018-03-06T00:54:48.927Z,995.57
2018-03-06T00:55:48.919Z,995.53
2018-03-06T00:56:48.909Z,995.51
2018-03-06T00:57:48.909Z,995.46
2018-03-06T00:58:49.627Z,995.5
2018-03-06T00:59:50.179Z,995.5
2018-03-06T01:00:48.920Z,995.47
2018-03-06T01:01:48.945Z,995.44
2018-03-06T01:02:50.418Z,995.45
2018-03-06T01:03:48.955Z,995.42
2018-03-06T01:04:48.949Z,995.43
2018-03-06T01:05:48.946Z,995.41
2018-03-06T01:06:49.967Z,995.4
2018-03-06T01:07:48.959Z,995.36
2018-03-06T01:08:48.951Z,995.43
2018-03-06T01:09:48.958Z,995.38
2018-03-06T01:10:49.684Z,995.37
2018-03-06T01:11:48.975Z,995.34
2018-03-06T01:12:48.962Z,995.39
2018-03-06T01:13:49.893Z,995.4
2018-03-06T01:14:48.980Z,995.35
2018-03-06T01:15:48.963Z,995.34
2018-03-06T01:16:48.971Z,995.36
2018-03-06T01:17:49.817Z,995.37
2018-03-06T01:18:48.972Z,995.35
2018-03-06T01:19:49.012Z,995.38
2018-03-06T01:20:48.999Z,995.3
2018-03-06T01:21:49.674Z,995.32
2018-03-06T01:22:48.986Z,995.31
2018-03-06T01:23:48.992Z,995.29
2018-03-06T01:24:49.250Z,995.29
2018-03-06T01:25:48.986Z,995.28
2018-03-06T01:26:49.004Z,995.29
2018-03-06T01:27:49.022Z,995.31
2018-03-06T01:28:49.938Z,995.31
2018-03-06T01:29:49.009Z,995.27
2018-03-06T01:30:49.912Z,995.25
2018-03-06T01:31:49.383Z,995.24
2018-03-06T01:32:49.021Z,995.2
2018-03-06T01:33:49.033Z,995.18
2018-03-06T01:34:49.981Z,995.2
2018-03-06T01:35:49.033Z,995.22
2018-03-06T01:36:49.043Z,995.2
2018-03-06T01:37:49.467Z,995.15
2018-03-06T01:38:49.031Z,995.18
2018-03-06T01:39:49.066Z,995.14
2018-03-06T01:40:49.055Z,995.12
2018-03-06T01:41:49.865Z,995.13
2018-03-06T01:44:54.889Z,995.07
2018-03-06T01:45:49.612Z,995.05
2018-03-06T01:46:50.369Z,995.02
2018-03-06T01:47:50.117Z,995.03
2018-03-06T01:48:50.658Z,995.02
2018-03-06T01:49:50.522Z,994.98
2018-03-06T01:50:50.672Z,994.97
2018-03-06T01:52:15.074Z,994.99
2018-03-06T01:53:23.131Z,995
2018-03-06T01:59:09.261Z,994.96
2018-03-06T02:00:04.922Z,994.92
2018-03-06T02:01:06.244Z,994.91
2018-03-06T02:02:02.979Z,994.95
2018-03-06T02:03:03.949Z,994.92
2018-03-06T02:04:05.455Z,994.93
2018-03-06T02:05:03.063Z,994.92
2018-03-06T02:06:04.672Z,994.91
2018-03-06T02:08:04.959Z,994.88
2018-03-06T02:09:02.304Z,994.91
2018-03-06T02:10:04.072Z,994.9
2018-03-06T02:11:09.518Z,994.91
2018-03-06T02:12:09.124Z,994.86
2018-03-06T02:13:03.806Z,994.91
2018-03-06T02:14:02.965Z,994.9
2018-03-06T02:15:06.657Z,994.89
2018-03-06T02:17:03.341Z,994.96
2018-03-06T02:18:02.571Z,994.91
2018-03-06T02:19:09.740Z,994.92
2018-03-06T02:20:04.551Z,994.92
2018-03-06T02:21:06.718Z,994.91
2018-03-06T02:23:02.969Z,994.95
2018-03-06T02:24:02.061Z,994.93
2018-03-06T02:35:26.552Z,995.09
2018-03-06T02:36:24.588Z,995.09
2018-03-06T02:37:32.699Z,995.11
2018-03-06T02:38:24.068Z,995.09
2018-03-06T02:39:23.821Z,995.12
2018-03-06T02:40:23.390Z,995.12
2018-03-06T02:41:22.506Z,995.07
2018-03-06T02:42:22.511Z,995.1
2018-03-06T02:43:23.060Z,995.09
2018-03-06T02:44:22.817Z,995.11
2018-03-06T02:45:22.506Z,995.06
2018-03-06T02:46:22.527Z,995.07
2018-03-06T02:47:23.169Z,995.05
2018-03-06T02:48:22.525Z,995.05
2018-03-06T02:49:22.539Z,995.08
2018-03-06T02:50:22.556Z,995.05
2018-03-06T02:51:22.526Z,995.12
2018-03-06T02:52:22.541Z,995.05
2018-03-06T02:53:22.550Z,995.1
2018-03-06T02:54:23.465Z,995.08
2018-03-06T02:55:22.534Z,995.09
2018-03-06T02:56:22.534Z,995.07
2018-03-06T02:57:22.556Z,995.06
2018-03-06T02:58:22.555Z,995.03
2018-03-06T02:59:22.573Z,995.07
2018-03-06T03:00:22.552Z,995.08
2018-03-06T03:01:23.585Z,995.07
2018-03-06T03:02:22.546Z,995.08
2018-03-06T03:03:22.590Z,995.08
2018-03-06T03:04:22.565Z,995.1
2018-03-06T03:05:23.603Z,995.02
2018-03-06T03:06:22.575Z,995.02
2018-03-06T03:07:22.617Z,995.02
2018-03-06T03:08:22.597Z,995.01
2018-03-06T03:09:23.264Z,995.01
2018-03-06T03:10:22.595Z,994.97
2018-03-06T03:11:22.598Z,994.97
2018-03-06T03:12:23.453Z,994.95
2018-03-06T03:13:22.679Z,994.94
2018-03-06T03:14:22.606Z,994.93
2018-03-06T03:15:22.631Z,994.91
2018-03-06T03:16:23.592Z,994.95
2018-03-06T03:17:22.641Z,994.88
2018-03-06T03:18:22.632Z,994.87
2018-03-06T03:19:22.634Z,994.88
2018-03-06T03:20:23.244Z,994.89
2018-03-06T03:21:22.918Z,994.87
2018-03-06T03:22:22.630Z,994.92
2018-03-06T03:23:23.680Z,994.86
2018-03-06T03:24:22.652Z,994.85
2018-03-06T03:25:22.627Z,994.82
2018-03-06T03:26:22.664Z,994.85
2018-03-06T03:27:22.651Z,994.84
2018-03-06T03:28:22.649Z,994.87
2018-03-06T03:29:22.658Z,994.85
2018-03-06T03:30:23.541Z,994.83
2018-03-06T03:31:22.656Z,994.82
2018-03-06T03:32:22.914Z,994.82
2018-03-06T03:33:23.561Z,994.85
2018-03-06T03:34:22.660Z,994.81
2018-03-06T03:35:22.678Z,994.8
2018-03-06T03:36:23.201Z,994.81
2018-03-06T03:37:22.714Z,994.78
2018-03-06T03:38:22.692Z,994.77
2018-03-06T03:39:23.725Z,994.78
2018-03-06T03:40:22.703Z,994.8
2018-03-06T03:41:22.686Z,994.76
2018-03-06T03:42:23.831Z,994.76
2018-03-06T03:43:22.723Z,994.81
2018-03-06T03:44:22.698Z,994.77
2018-03-06T03:45:22.698Z,994.78
2018-03-06T03:46:22.705Z,994.78
2018-03-06T03:47:22.712Z,994.79
2018-03-06T03:48:22.731Z,994.7
2018-03-06T03:49:23.410Z,994.77
2018-03-06T03:50:22.976Z,994.75
2018-03-06T03:51:22.722Z,994.77
2018-03-06T03:52:23.496Z,994.73
2018-03-06T03:53:22.753Z,994.78
2018-03-06T03:54:22.753Z,994.75
2018-03-06T03:55:23.961Z,994.73
2018-03-06T03:56:22.764Z,994.76
2018-03-06T03:57:22.769Z,994.78
2018-03-06T03:58:22.745Z,994.79
2018-03-06T03:59:23.400Z,994.76
2018-03-06T04:00:22.785Z,994.77
2018-03-06T04:01:22.780Z,994.75
2018-03-06T04:02:23.727Z,994.73
2018-03-06T04:03:22.774Z,994.7
2018-03-06T04:04:22.793Z,994.7
2018-03-06T04:05:22.777Z,994.69
2018-03-06T04:06:22.796Z,994.72
2018-03-06T04:07:22.781Z,994.67
2018-03-06T04:08:23.532Z,994.7
2018-03-06T04:09:22.810Z,994.72
2018-03-06T04:10:22.817Z,994.69
2018-03-06T04:11:23.634Z,994.68
2018-03-06T04:12:22.831Z,994.68
2018-03-06T04:13:22.791Z,994.68
2018-03-06T04:14:23.707Z,994.69
2018-03-06T04:15:22.823Z,994.65
2018-03-06T04:16:22.839Z,994.7
2018-03-06T04:17:22.815Z,994.71
2018-03-06T04:18:23.650Z,994.71
2018-03-06T04:19:22.804Z,994.7
2018-03-06T04:20:22.809Z,994.7
2018-03-06T04:21:23.600Z,994.73
2018-03-06T04:22:22.849Z,994.68
2018-03-06T04:23:22.849Z,994.69
2018-03-06T04:24:23.568Z,994.72
2018-03-06T04:25:22.832Z,994.7
2018-03-06T04:26:22.849Z,994.7
2018-03-06T04:27:22.863Z,994.68
2018-03-06T04:28:23.700Z,994.69
2018-03-06T04:29:22.869Z,994.68
2018-03-06T04:30:22.880Z,994.72
2018-03-06T04:31:23.728Z,994.73
2018-03-06T04:32:22.869Z,994.74
2018-03-06T04:33:22.900Z,994.77
2018-03-06T04:34:23.751Z,994.78
2018-03-06T04:35:22.886Z,994.78
2018-03-06T04:36:22.873Z,994.74
2018-03-06T04:37:22.895Z,994.75
2018-03-06T04:38:23.789Z,994.77
2018-03-06T04:39:22.924Z,994.78
2018-03-06T04:40:22.908Z,994.81
2018-03-06T04:41:23.765Z,994.81
2018-03-06T04:42:22.942Z,994.82
2018-03-06T04:43:22.953Z,994.82
2018-03-06T04:44:22.937Z,994.83
2018-03-06T04:45:23.706Z,994.85
2018-03-06T04:46:22.935Z,994.84
2018-03-06T04:47:22.937Z,994.84
2018-03-06T04:48:23.880Z,994.84
2018-03-06T04:49:22.930Z,994.83
2018-03-06T04:50:22.949Z,994.88
2018-03-06T04:51:22.944Z,994.83
2018-03-06T04:52:23.608Z,994.88
2018-03-06T04:53:22.948Z,994.84
2018-03-06T04:54:22.956Z,994.85
2018-03-06T04:55:23.824Z,994.83
2018-03-06T04:56:22.959Z,994.81
2018-03-06T04:57:22.989Z,994.79
2018-03-06T04:58:22.974Z,994.81
2018-03-06T04:59:23.795Z,994.77
2018-03-06T05:00:22.978Z,994.78
2018-03-06T05:01:22.982Z,994.76
2018-03-06T05:02:22.974Z,994.76
2018-03-06T05:03:23.561Z,994.76
2018-03-06T05:04:22.983Z,994.74
2018-03-06T05:05:22.979Z,994.77
2018-03-06T05:06:22.988Z,994.75
2018-03-06T05:07:23.823Z,994.78
2018-03-06T05:08:23.001Z,994.77
2018-03-06T05:09:22.981Z,994.72
2018-03-06T05:10:23.898Z,994.77
2018-03-06T05:11:23.028Z,994.79
2018-03-06T05:12:22.988Z,994.81
2018-03-06T05:13:24.063Z,994.8
2018-03-06T05:14:23.009Z,994.79
2018-03-06T05:15:22.999Z,994.79
2018-03-06T05:16:24.035Z,994.78
2018-03-06T05:17:23.020Z,994.78
2018-03-06T05:18:23.025Z,994.81
2018-03-06T05:19:23.032Z,994.75
2018-03-06T05:20:23.861Z,994.75
2018-03-06T05:21:23.034Z,994.75
2018-03-06T05:22:23.062Z,994.77
2018-03-06T05:23:23.022Z,994.76
2018-03-06T05:24:24.328Z,994.71
2018-03-06T05:25:23.070Z,994.76
2018-03-06T05:26:23.066Z,994.71
2018-03-06T05:27:23.073Z,994.71
2018-03-06T05:28:23.772Z,994.73
2018-03-06T05:29:23.106Z,994.7
2018-03-06T05:30:23.051Z,994.67
2018-03-06T05:31:23.044Z,994.7
2018-03-06T05:32:23.764Z,994.71
2018-03-06T05:33:23.085Z,994.74
2018-03-06T05:34:23.092Z,994.71
2018-03-06T05:35:23.802Z,994.71
2018-03-06T05:36:23.060Z,994.67
2018-03-06T05:37:23.055Z,994.69
2018-03-06T05:38:23.066Z,994.7
2018-03-06T05:39:23.960Z,994.7
2018-03-06T05:40:23.086Z,994.69
2018-03-06T05:41:23.102Z,994.7
2018-03-06T05:42:23.093Z,994.68
2018-03-06T05:43:23.971Z,994.66
2018-03-06T05:44:23.149Z,994.7
2018-03-06T05:45:23.118Z,994.7
2018-03-06T05:46:23.088Z,994.72
2018-03-06T05:47:23.947Z,994.7
2018-03-06T05:48:23.122Z,994.71
2018-03-06T05:49:23.100Z,994.69
2018-03-06T05:50:23.896Z,994.7
2018-03-06T05:51:23.133Z,994.69
2018-03-06T05:52:23.110Z,994.71
2018-03-06T05:53:23.097Z,994.73
2018-03-06T05:54:24.092Z,994.71
2018-03-06T05:55:23.130Z,994.71
2018-03-06T05:56:23.147Z,994.74
2018-03-06T05:57:23.137Z,994.79
2018-03-06T05:58:23.964Z,994.78
2018-03-06T05:59:23.147Z,994.85
2018-03-06T06:00:23.151Z,994.84
2018-03-06T06:01:23.153Z,994.85
2018-03-06T06:02:24.265Z,994.87
2018-03-06T06:03:23.156Z,994.88
2018-03-06T06:04:23.231Z,994.85
2018-03-06T06:05:24.141Z,994.89
2018-03-06T06:06:23.168Z,994.91
2018-03-06T06:07:23.192Z,994.91
2018-03-06T06:08:23.780Z,994.9
2018-03-06T06:09:23.200Z,994.91
2018-03-06T06:10:23.243Z,994.96
2018-03-06T06:11:24.036Z,994.93
2018-03-06T06:12:23.227Z,994.92
2018-03-06T06:13:23.184Z,994.97
2018-03-06T06:14:23.183Z,994.96
2018-03-06T06:15:23.198Z,994.98
2018-03-06T06:16:23.183Z,995.05
2018-03-06T06:17:23.210Z,994.99
2018-03-06T06:18:23.201Z,994.97
2018-03-06T06:19:23.207Z,994.96
2018-03-06T06:20:23.203Z,995.02
2018-03-06T06:21:23.316Z,995.03
2018-03-06T06:22:23.404Z,995.05
2018-03-06T06:23:23.210Z,995.04
2018-03-06T06:24:23.222Z,995.06
2018-03-06T06:25:23.216Z,995.04
2018-03-06T06:26:23.221Z,995.04
2018-03-06T06:27:23.224Z,995.11
2018-03-06T06:28:23.216Z,995.11
2018-03-06T06:29:23.229Z,995.06
2018-03-06T06:30:23.214Z,995.06
2018-03-06T06:31:23.224Z,995.12
2018-03-06T06:32:23.223Z,995.08
2018-03-06T06:33:23.220Z,995.11
2018-03-06T06:34:23.226Z,995.12
2018-03-06T06:35:23.376Z,995.18
2018-03-06T06:36:23.219Z,995.11
2018-03-06T06:37:23.243Z,995.13
2018-03-06T06:38:23.251Z,995.14
2018-03-06T06:39:23.240Z,995.13
2018-03-06T06:40:23.234Z,995.17
2018-03-06T06:41:23.236Z,995.11
2018-03-06T06:42:23.279Z,995.15
2018-03-06T06:43:23.251Z,995.16
2018-03-06T06:44:23.251Z,995.18
2018-03-06T06:45:23.254Z,995.21
2018-03-06T06:46:23.260Z,995.17
2018-03-06T06:47:23.272Z,995.21
2018-03-06T06:48:23.279Z,995.25
2018-03-06T06:49:23.274Z,995.24
2018-03-06T06:50:23.281Z,995.26
2018-03-06T06:51:23.285Z,995.24
2018-03-06T06:52:23.373Z,995.27
2018-03-06T06:53:23.296Z,995.27
2018-03-06T06:54:23.311Z,995.3
2018-03-06T06:55:23.303Z,995.25
2018-03-06T06:56:23.294Z,995.26
2018-03-06T06:57:23.303Z,995.27
2018-03-06T06:58:23.317Z,995.28
2018-03-06T06:59:23.307Z,995.28
2018-03-06T07:00:23.355Z,995.21
2018-03-06T07:01:23.321Z,995.26
2018-03-06T07:02:23.316Z,995.29
2018-03-06T07:03:23.325Z,995.25
2018-03-06T07:04:23.384Z,995.27
2018-03-06T07:05:23.335Z,995.25
2018-03-06T07:06:23.358Z,995.25
2018-03-06T07:07:23.337Z,995.19
2018-03-06T07:08:23.364Z,995.22
2018-03-06T07:09:23.358Z,995.24
2018-03-06T07:10:23.501Z,995.22
2018-03-06T07:11:23.373Z,995.21
2018-03-06T07:12:23.356Z,995.21
2018-03-06T07:13:23.350Z,995.21
2018-03-06T07:14:23.400Z,995.24
2018-03-06T07:15:23.358Z,995.24
2018-03-06T07:16:23.361Z,995.25
2018-03-06T07:17:23.379Z,995.26
2018-03-06T07:18:23.386Z,995.27
2018-03-06T07:19:23.370Z,995.27
2018-03-06T07:20:23.382Z,995.26
2018-03-06T07:21:23.378Z,995.25
2018-03-06T07:22:23.394Z,995.29
2018-03-06T07:23:23.397Z,995.3
2018-03-06T07:24:23.387Z,995.3
2018-03-06T07:25:23.392Z,995.31
2018-03-06T07:26:23.394Z,995.32
2018-03-06T07:27:23.394Z,995.34
2018-03-06T07:28:23.399Z,995.32
2018-03-06T07:29:23.406Z,995.35
2018-03-06T07:30:23.409Z,995.36
2018-03-06T07:31:23.409Z,995.32
2018-03-06T07:32:23.529Z,995.34
2018-03-06T07:33:23.411Z,995.35
2018-03-06T07:34:23.424Z,995.37
2018-03-06T07:35:23.425Z,995.36
2018-03-06T07:36:23.417Z,995.34
2018-03-06T07:37:23.435Z,995.37
2018-03-06T07:38:23.423Z,995.34
2018-03-06T07:39:23.429Z,995.33
2018-03-06T07:40:23.426Z,995.31
2018-03-06T07:41:23.433Z,995.33
2018-03-06T07:42:23.434Z,995.32
2018-03-06T07:43:23.440Z,995.32
2018-03-06T07:44:23.442Z,995.34
2018-03-06T07:45:23.516Z,995.33
2018-03-06T07:46:23.445Z,995.34
2018-03-06T07:47:23.444Z,995.36
2018-03-06T07:48:23.460Z,995.37
2018-03-06T07:49:23.450Z,995.37
2018-03-06T07:50:23.471Z,995.38
2018-03-06T07:51:23.493Z,995.37
2018-03-06T07:52:23.484Z,995.35
2018-03-06T07:53:23.471Z,995.34
2018-03-06T07:54:23.482Z,995.35
2018-03-06T07:55:23.478Z,995.35
2018-03-06T07:56:23.472Z,995.36
2018-03-06T07:57:23.479Z,995.34
2018-03-06T07:58:23.479Z,995.38
2018-03-06T07:59:23.509Z,995.38
2018-03-06T08:00:23.495Z,995.41
2018-03-06T08:01:23.487Z,995.43
2018-03-06T08:02:23.500Z,995.4
2018-03-06T08:03:23.602Z,995.39
2018-03-06T08:04:23.499Z,995.42
2018-03-06T08:05:23.523Z,995.41
2018-03-06T08:06:23.520Z,995.39
2018-03-06T08:07:23.522Z,995.41
2018-03-06T08:08:23.519Z,995.43
2018-03-06T08:09:23.541Z,995.41
2018-03-06T08:10:23.519Z,995.38
2018-03-06T08:11:23.539Z,995.42
2018-03-06T08:12:23.528Z,995.39
2018-03-06T08:13:23.530Z,995.4
2018-03-06T08:14:23.534Z,995.37
2018-03-06T08:15:23.542Z,995.41
2018-03-06T08:16:23.540Z,995.34
2018-03-06T08:17:23.551Z,995.37
2018-03-06T08:18:23.561Z,995.35
2018-03-06T08:19:23.545Z,995.34
2018-03-06T08:20:23.553Z,995.36
2018-03-06T08:21:23.561Z,995.32
2018-03-06T08:22:23.572Z,995.3
2018-03-06T08:23:23.843Z,995.3
2018-03-06T08:24:23.568Z,995.31
2018-03-06T08:25:23.574Z,995.32
2018-03-06T08:26:23.576Z,995.33
2018-03-06T08:27:23.585Z,995.34
2018-03-06T08:28:23.622Z,995.35
2018-03-06T08:29:23.599Z,995.33
2018-03-06T08:30:23.596Z,995.37
2018-03-06T08:31:23.597Z,995.36
2018-03-06T08:32:23.601Z,995.33
2018-03-06T08:33:23.622Z,995.35
2018-03-06T08:35:23.606Z,995.33
2018-03-06T08:36:23.615Z,995.3
2018-03-06T08:37:23.607Z,995.36
2018-03-06T08:38:23.616Z,995.32
2018-03-06T08:39:23.622Z,995.37
2018-03-06T08:40:23.618Z,995.36
2018-03-06T08:41:23.640Z,995.37
2018-03-06T08:42:23.629Z,995.34
2018-03-06T08:43:23.630Z,995.36
2018-03-06T08:44:23.640Z,995.35
2018-03-06T08:45:23.633Z,995.35
2018-03-06T08:46:23.661Z,995.36
2018-03-06T08:47:23.640Z,995.34
2018-03-06T08:48:23.649Z,995.34
2018-03-06T08:49:23.654Z,995.34
2018-03-06T08:50:23.667Z,995.33
2018-03-06T08:51:23.695Z,995.28
2018-03-06T08:52:23.807Z,995.27
2018-03-06T08:53:23.673Z,995.27
2018-03-06T08:54:23.682Z,995.29
2018-03-06T08:55:23.671Z,995.24
2018-03-06T08:56:23.704Z,995.28
2018-03-06T08:57:23.676Z,995.25
2018-03-06T08:58:23.688Z,995.24
2018-03-06T08:59:23.705Z,995.22
2018-03-06T09:00:23.698Z,995.25
2018-03-06T09:01:23.759Z,995.25
2018-03-06T09:02:23.711Z,995.22
2018-03-06T09:03:23.704Z,995.26
2018-03-06T09:04:23.710Z,995.22
2018-03-06T09:05:23.715Z,995.21
2018-03-06T09:06:23.725Z,995.29
2018-03-06T09:07:23.719Z,995.25
2018-03-06T09:08:23.726Z,995.26
2018-03-06T09:09:23.729Z,995.24
2018-03-06T09:10:23.759Z,995.24
2018-03-06T09:11:23.739Z,995.24
2018-03-06T09:12:23.731Z,995.26
2018-03-06T09:13:23.794Z,995.25
2018-03-06T09:14:23.735Z,995.25
2018-03-06T09:15:23.741Z,995.23
2018-03-06T09:16:23.743Z,995.2
2018-03-06T09:17:23.849Z,995.25
2018-03-06T09:18:23.746Z,995.22
2018-03-06T09:19:23.748Z,995.24
2018-03-06T09:20:23.749Z,995.26
2018-03-06T09:21:23.761Z,995.29
2018-03-06T09:22:23.778Z,995.28
2018-03-06T09:23:23.757Z,995.29
2018-03-06T09:24:23.837Z,995.24
2018-03-06T09:25:23.768Z,995.28
2018-03-06T09:26:23.760Z,995.3
2018-03-06T09:27:23.788Z,995.27
2018-03-06T09:28:23.773Z,995.25
2018-03-06T09:29:23.768Z,995.23
2018-03-06T09:30:23.771Z,995.28
2018-03-06T09:31:23.784Z,995.25
2018-03-06T09:32:23.809Z,995.29
2018-03-06T09:33:23.790Z,995.25
2018-03-06T09:34:23.775Z,995.25
2018-03-06T09:35:23.803Z,995.29
2018-03-06T09:36:23.789Z,995.26
2018-03-06T09:37:24.062Z,995.29
2018-03-06T09:38:23.792Z,995.28
2018-03-06T09:39:23.793Z,995.26
2018-03-06T09:40:23.801Z,995.24
2018-03-06T09:41:23.799Z,995.26
2018-03-06T09:42:23.830Z,995.28
2018-03-06T09:43:23.797Z,995.3
2018-03-06T09:44:23.799Z,995.28
2018-03-06T09:45:23.812Z,995.3
2018-03-06T09:46:23.807Z,995.3
2018-03-06T09:47:23.829Z,995.3
2018-03-06T09:48:23.810Z,995.28
2018-03-06T09:49:23.811Z,995.26
2018-03-06T09:50:23.892Z,995.24
2018-03-06T09:51:23.815Z,995.26
2018-03-06T09:52:23.898Z,995.25
2018-03-06T09:53:24.076Z,995.28
2018-03-06T09:54:23.824Z,995.23
2018-03-06T09:55:23.822Z,995.22
2018-03-06T09:56:23.940Z,995.25
2018-03-06T09:57:23.853Z,995.21
2018-03-06T09:58:23.833Z,995.19
2018-03-06T09:59:23.842Z,995.2
2018-03-06T10:00:23.852Z,995.23
2018-03-06T10:01:23.893Z,995.23
2018-03-06T10:02:23.873Z,995.18
2018-03-06T10:03:23.843Z,995.17
2018-03-06T10:04:23.864Z,995.18
2018-03-06T10:05:23.845Z,995.16
2018-03-06T10:06:23.857Z,995.16
2018-03-06T10:07:23.856Z,995.14
2018-03-06T10:08:23.864Z,995.16
2018-03-06T10:09:23.854Z,995.13
2018-03-06T10:10:23.856Z,995.08
2018-03-06T10:11:23.876Z,995.13
2018-03-06T10:12:23.867Z,995.11
2018-03-06T10:13:23.885Z,995.05
2018-03-06T10:14:23.902Z,995.05
2018-03-06T10:15:23.874Z,995
2018-03-06T10:16:23.884Z,995.01
2018-03-06T10:17:23.886Z,995
2018-03-06T10:18:23.889Z,995.02
2018-03-06T10:19:23.942Z,995.05
2018-03-06T10:20:23.886Z,995.08
2018-03-06T10:21:23.903Z,995.11
2018-03-06T10:22:23.916Z,995.09
2018-03-06T10:23:23.913Z,995.08
2018-03-06T10:24:23.935Z,995.08
2018-03-06T10:25:23.900Z,995.04
2018-03-06T10:26:23.898Z,995.05
2018-03-06T10:27:23.935Z,995.01
2018-03-06T10:28:23.908Z,995.03
2018-03-06T10:29:23.931Z,995.04
2018-03-06T10:30:23.916Z,995.03
2018-03-06T10:31:23.920Z,995.04
2018-03-06T10:32:23.930Z,995.03
2018-03-06T10:33:23.978Z,995.07
2018-03-06T10:34:24.201Z,995.04
2018-03-06T10:35:24.029Z,995.04
2018-03-06T10:36:23.931Z,995.07
2018-03-06T10:37:23.935Z,995.01
2018-03-06T10:38:23.940Z,995.03
2018-03-06T10:39:23.967Z,995
2018-03-06T10:40:23.956Z,995.01
2018-03-06T10:41:23.961Z,995.01
2018-03-06T10:42:23.957Z,995
2018-03-06T10:43:23.979Z,995
2018-03-06T10:44:23.984Z,994.99
2018-03-06T10:45:23.967Z,994.99
2018-03-06T10:46:23.981Z,994.98
2018-03-06T10:47:24.031Z,994.99
2018-03-06T10:48:23.986Z,994.98
2018-03-06T10:49:23.992Z,994.97
2018-03-06T10:50:23.992Z,994.96
2018-03-06T10:51:23.992Z,994.91
2018-03-06T10:52:24.000Z,994.94
2018-03-06T10:53:23.997Z,994.99
2018-03-06T10:54:24.024Z,994.95
2018-03-06T10:55:24.014Z,994.92
2018-03-06T10:56:24.019Z,994.91
2018-03-06T10:57:24.002Z,994.88
2018-03-06T10:58:24.015Z,994.89
2018-03-06T10:59:24.058Z,994.89
2018-03-06T11:00:24.020Z,994.88
2018-03-06T11:01:24.025Z,994.87
2018-03-06T11:02:24.028Z,994.86
2018-03-06T11:03:24.053Z,994.87
2018-03-06T11:04:24.099Z,994.86
2018-03-06T11:05:24.035Z,994.84
2018-03-06T11:06:24.035Z,994.82
2018-03-06T11:07:24.045Z,994.78
2018-03-06T11:08:24.051Z,994.79
2018-03-06T11:09:24.142Z,994.79
2018-03-06T11:10:24.059Z,994.78
2018-03-06T11:11:24.098Z,994.73
2018-03-06T11:12:24.075Z,994.76
2018-03-06T11:13:24.074Z,994.77
2018-03-06T11:14:24.252Z,994.74
2018-03-06T11:15:24.069Z,994.76
2018-03-06T11:16:24.072Z,994.75
2018-03-06T11:17:24.071Z,994.75
2018-03-06T11:18:24.231Z,994.74
2018-03-06T11:19:24.078Z,994.77
2018-03-06T11:20:24.088Z,994.77
2018-03-06T11:21:24.082Z,994.72
2018-03-06T11:22:24.184Z,994.75
2018-03-06T11:23:24.104Z,994.78
2018-03-06T11:24:24.098Z,994.75
2018-03-06T11:25:24.106Z,994.78
2018-03-06T11:26:24.111Z,994.75
2018-03-06T11:27:24.119Z,994.78
2018-03-06T11:28:24.113Z,994.78
2018-03-06T11:29:24.113Z,994.78
2018-03-06T11:30:24.132Z,994.74
2018-03-06T11:31:24.135Z,994.75
2018-03-06T11:32:24.130Z,994.7
2018-03-06T11:33:24.129Z,994.7
2018-03-06T11:34:24.132Z,994.67
2018-03-06T11:35:24.200Z,994.71
2018-03-06T11:36:24.128Z,994.68
2018-03-06T11:37:24.164Z,994.68
2018-03-06T11:38:24.137Z,994.7
2018-03-06T11:39:24.139Z,994.66
2018-03-06T11:40:24.386Z,994.65
2018-03-06T11:41:24.144Z,994.69
2018-03-06T11:42:24.202Z,994.67
2018-03-06T11:43:24.140Z,994.64
2018-03-06T11:44:24.148Z,994.61
2018-03-06T11:45:24.149Z,994.59
2018-03-06T11:46:24.156Z,994.58
2018-03-06T11:47:24.148Z,994.55
2018-03-06T11:48:24.148Z,994.55
2018-03-06T11:49:24.158Z,994.49
2018-03-06T11:50:24.164Z,994.47
2018-03-06T11:51:24.174Z,994.41
2018-03-06T11:52:24.156Z,994.39
2018-03-06T11:53:24.164Z,994.36
2018-03-06T11:54:25.282Z,994.41
2018-03-06T11:55:24.192Z,994.42
2018-03-06T11:56:24.167Z,994.42
2018-03-06T11:57:24.177Z,994.39
2018-03-06T11:58:24.250Z,994.38
2018-03-06T11:59:24.214Z,994.36
2018-03-06T12:00:24.182Z,994.38
2018-03-06T12:01:24.189Z,994.39
2018-03-06T12:02:24.186Z,994.32
2018-03-06T12:03:24.213Z,994.31
2018-03-06T12:04:24.195Z,994.31
2018-03-06T12:05:24.252Z,994.29
2018-03-06T12:06:24.203Z,994.29
2018-03-06T12:07:24.211Z,994.3
2018-03-06T12:08:24.220Z,994.28
2018-03-06T12:09:24.252Z,994.31
2018-03-06T12:10:24.222Z,994.31
2018-03-06T12:11:24.231Z,994.29
2018-03-06T12:12:24.225Z,994.3
2018-03-06T12:13:24.246Z,994.28
2018-03-06T12:14:24.229Z,994.28
2018-03-06T12:15:24.239Z,994.27
2018-03-06T12:16:24.226Z,994.25
2018-03-06T12:17:24.233Z,994.22
2018-03-06T12:18:24.226Z,994.21
2018-03-06T12:19:24.261Z,994.18
2018-03-06T12:20:24.229Z,994.14
2018-03-06T12:21:24.264Z,994.13
2018-03-06T12:22:24.238Z,994.17
2018-03-06T12:23:24.262Z,994.17
2018-03-06T12:24:24.255Z,994.18
2018-03-06T12:25:24.261Z,994.12
2018-03-06T12:26:24.264Z,994.13
2018-03-06T12:27:24.255Z,994.12
2018-03-06T12:28:24.285Z,994.15
2018-03-06T12:29:24.262Z,994.1
2018-03-06T12:30:24.269Z,994.15
2018-03-06T12:31:24.283Z,994.1
2018-03-06T12:32:24.309Z,994.14
2018-03-06T12:33:24.453Z,994.1
2018-03-06T12:34:24.384Z,994.1
2018-03-06T12:35:24.292Z,994.14
2018-03-06T12:36:24.296Z,994.09
2018-03-06T12:37:24.289Z,994.13
2018-03-06T12:38:24.311Z,994.12
2018-03-06T12:39:24.319Z,994.11
2018-03-06T12:40:24.287Z,994.09
2018-03-06T12:41:24.306Z,994.08
2018-03-06T12:42:24.303Z,994.05
2018-03-06T12:43:24.316Z,994.04
2018-03-06T12:44:24.300Z,994.04
2018-03-06T12:45:24.316Z,994.03
2018-03-06T12:46:24.306Z,994.03
2018-03-06T12:47:24.305Z,994.02
2018-03-06T12:48:24.309Z,994.06
2018-03-06T12:49:24.326Z,994.04
2018-03-06T12:50:24.335Z,994.02
2018-03-06T12:51:24.327Z,994.03
2018-03-06T12:52:24.336Z,994.03